Time;durP1;ratioP1;P1;durP2;ratioP2;P2;SDS_P1;SDS_P2;PMS_P1;PMS_P2;Temp;Humidity;BMP_temperature;BMP_pressure;BME280_temperature;BME280_humidity;BME280_pressure;Samples;Min_cycle;Max_cycle;Signal;HPM_P1;HPM_P2
2023/05/19 00:00:13;;;;;;;4.13;1.95;;;;;;;18.68;73.53;100828.13;5052567;28;20045;-61
2023/05/19 00:02:42;;;;;;;3.63;1.77;;;;;;;18.68;73.58;100828.97;5052486;28;20049;-61
2023/05/19 00:05:13;;;;;;;3.97;2.10;;;;;;;18.67;73.31;100827.28;5052661;28;20134;-61
2023/05/19 00:07:43;;;;;;;4.32;1.85;;;;;;;18.67;73.06;100827.28;5052662;28;20080;-61
2023/05/19 00:10:15;;;;;;;4.28;1.92;;;;;;;18.67;73.47;100826.41;5052574;28;20404;-61
2023/05/19 00:12:46;;;;;;;5.18;1.80;;;;;;;18.66;73.62;100824.72;5052409;28;20103;-61
2023/05/19 00:15:15;;;;;;;4.00;1.80;;;;;;;18.66;73.50;100820.16;5052351;28;20128;-61
2023/05/19 00:17:43;;;;;;;2.75;1.63;;;;;;;18.65;73.31;100823.84;5052457;28;20064;-61
2023/05/19 00:20:13;;;;;;;4.25;2.00;;;;;;;18.64;73.13;100824.81;5052443;28;20099;-61
2023/05/19 00:22:42;;;;;;;4.43;2.00;;;;;;;18.64;73.60;100827.50;5052226;28;20049;-61
2023/05/19 00:25:11;;;;;;;4.38;1.83;;;;;;;18.65;73.56;100823.00;5052171;28;20155;-61
2023/05/19 00:27:40;;;;;;;5.10;1.90;;;;;;;18.64;73.29;100832.06;5052014;28;20056;-61
2023/05/19 00:30:09;;;;;;;3.75;1.85;;;;;;;18.64;73.40;100821.25;5052341;28;20059;-61
2023/05/19 00:32:37;;;;;;;4.68;1.88;;;;;;;18.63;73.17;100820.41;5052171;28;20047;-61
2023/05/19 00:35:09;;;;;;;4.35;1.98;;;;;;;18.63;73.18;100815.00;5052149;28;20056;-61
2023/05/19 00:37:37;;;;;;;4.53;2.10;;;;;;;18.62;73.40;100807.00;5052014;28;20131;-61
2023/05/19 00:40:09;;;;;;;4.15;2.10;;;;;;;18.62;73.47;100807.84;5051811;28;20103;-62
2023/05/19 00:42:43;;;;;;;4.78;1.75;;;;;;;18.61;73.36;100816.94;5051924;28;20387;-61
2023/05/19 00:45:14;;;;;;;4.45;2.20;;;;;;;18.61;73.28;100806.13;5051956;28;20055;-61
2023/05/19 00:47:42;;;;;;;5.15;2.00;;;;;;;18.60;73.21;100810.69;5051849;28;20186;-61
2023/05/19 00:50:11;;;;;;;4.72;1.98;;;;;;;18.60;73.38;100807.97;5050887;28;20084;-62
2023/05/19 00:52:40;;;;;;;3.88;1.80;;;;;;;18.59;73.04;100808.13;5051794;28;20048;-61
2023/05/19 00:55:10;;;;;;;3.72;1.90;;;;;;;18.59;73.42;100805.41;5050655;28;20490;-61
2023/05/19 00:57:40;;;;;;;4.05;1.80;;;;;;;18.59;73.29;100802.72;5051784;28;20059;-61
2023/05/19 01:00:10;;;;;;;4.13;1.95;;;;;;;18.59;73.29;100806.28;5051680;28;20049;-61
2023/05/19 01:02:38;;;;;;;4.22;1.80;;;;;;;18.58;73.32;100801.00;5050457;28;20469;-61
2023/05/19 01:05:08;;;;;;;4.78;2.10;;;;;;;18.58;73.20;100807.25;5051472;28;20483;-61
2023/05/19 01:07:41;;;;;;;4.00;2.10;;;;;;;18.57;73.22;100812.81;5051413;28;20056;-62
2023/05/19 01:10:10;;;;;;;4.25;2.00;;;;;;;18.58;72.90;100803.72;5051543;28;20045;-61
2023/05/19 01:12:41;;;;;;;4.25;1.85;;;;;;;18.56;73.35;100803.84;5083499;28;20059;-61
2023/05/19 01:15:13;;;;;;;3.08;1.92;;;;;;;18.56;73.23;100802.97;5050959;28;20426;-61
2023/05/19 01:17:49;;;;;;;3.03;1.70;;;;;;;18.56;72.95;100802.97;5051189;28;20128;-61
2023/05/19 01:20:24;;;;;;;3.70;1.83;;;;;;;18.56;73.33;100797.59;5051163;28;20049;-61
2023/05/19 01:23:35;;;;;;;3.85;1.90;;;;;;;18.55;72.83;100801.28;5051480;28;20103;-61
2023/05/19 01:26:42;;;;;;;3.85;1.90;;;;;;;18.55;72.83;100803.97;5009028;28;20093;-61
2023/05/19 01:29:42;;;;;;;3.88;1.73;;;;;;;18.54;72.91;100799.56;5001474;28;20071;-62
2023/05/19 01:32:14;;;;;;;4.32;1.95;;;;;;;18.54;73.04;100808.53;5051296;28;20103;-62
2023/05/19 01:34:46;;;;;;;4.00;1.90;;;;;;;18.54;72.88;100813.06;5051134;28;20080;-61
2023/05/19 01:37:16;;;;;;;5.35;1.90;;;;;;;18.53;72.87;100798.72;5051480;28;20434;-61
2023/05/19 01:39:45;;;;;;;3.22;1.67;;;;;;;18.52;73.12;100801.50;5051235;28;20469;-61
2023/05/19 01:42:15;;;;;;;4.65;1.85;;;;;;;18.52;73.19;100796.97;5050975;28;20049;-61
2023/05/19 01:44:47;;;;;;;4.60;1.80;;;;;;;18.51;73.25;100795.25;5051090;28;20049;-61
2023/05/19 01:47:17;;;;;;;3.63;1.80;;;;;;;18.51;72.83;100789.00;5050849;28;20057;-61
2023/05/19 01:49:47;;;;;;;3.47;1.85;;;;;;;18.50;73.18;100790.00;5051046;28;20051;-61
2023/05/19 01:52:15;;;;;;;3.65;1.88;;;;;;;18.50;73.13;100793.53;5049898;28;20041;-61
2023/05/19 01:54:43;;;;;;;3.35;1.85;;;;;;;18.50;73.15;100795.38;5050937;28;20060;-61
2023/05/19 01:57:20;;;;;;;4.40;1.73;;;;;;;18.50;72.84;100798.09;5050881;28;20048;-61
2023/05/19 01:59:59;;;;;;;2.88;1.55;;;;;;;18.50;72.86;100795.38;5050873;28;20064;-61
2023/05/19 02:02:43;;;;;;;3.90;1.85;;;;;;;18.48;72.76;100795.53;5053406;28;20045;-62
2023/05/19 02:05:20;;;;;;;3.25;1.75;;;;;;;18.48;72.81;100794.66;5054890;28;20041;-61
2023/05/19 02:07:58;;;;;;;3.85;1.70;;;;;;;18.48;72.96;100797.38;5054802;28;20060;-61
2023/05/19 02:10:30;;;;;;;3.78;1.80;;;;;;;18.47;73.02;100798.38;5054683;28;20131;-61
2023/05/19 02:13:04;;;;;;;3.90;1.90;;;;;;;18.47;73.00;100801.06;5054617;28;20057;-61
2023/05/19 02:15:38;;;;;;;3.95;2.10;;;;;;;18.46;73.10;100793.94;5054766;28;20053;-61
2023/05/19 02:18:10;;;;;;;5.03;1.90;;;;;;;18.46;73.14;100802.06;5054596;28;20057;-61
2023/05/19 02:20:39;;;;;;;3.00;1.88;;;;;;;18.46;73.05;100802.06;5054478;28;20049;-61
2023/05/19 02:23:10;;;;;;;3.25;1.70;;;;;;;18.45;73.05;100798.50;5054751;28;20451;-61
2023/05/19 02:25:48;;;;;;;2.83;1.80;;;;;;;18.45;73.08;100794.94;5053148;28;20455;-61
2023/05/19 02:28:17;;;;;;;4.63;2.25;;;;;;;18.44;73.05;100795.94;5054413;28;20494;-61
2023/05/19 02:30:46;;;;;;;3.88;1.90;;;;;;;18.44;72.86;100804.03;5053276;28;20045;-61
2023/05/19 02:33:16;;;;;;;4.97;1.92;;;;;;;18.45;72.87;100805.75;5054143;28;20115;-61
2023/05/19 02:35:44;;;;;;;3.22;1.80;;;;;;;18.43;73.10;100800.47;5054535;28;20052;-61
2023/05/19 02:38:12;;;;;;;4.10;1.92;;;;;;;18.44;73.10;100809.44;5054382;28;20049;-61
2023/05/19 02:40:40;;;;;;;4.03;2.00;;;;;;;18.43;73.10;100805.00;5054332;28;20083;-61
2023/05/19 02:43:12;;;;;;;3.08;1.70;;;;;;;18.43;72.92;100802.28;5054164;28;20049;-61
2023/05/19 02:45:42;;;;;;;3.00;1.77;;;;;;;18.42;72.85;100797.88;5054196;28;20055;-61
2023/05/19 02:48:11;;;;;;;3.33;2.05;;;;;;;18.42;73.15;100797.88;5054144;28;20049;-61
2023/05/19 02:50:41;;;;;;;5.70;3.05;;;;;;;18.41;72.96;100797.03;5054180;28;20048;-61
2023/05/19 02:53:09;;;;;;;5.30;2.55;;;;;;;18.41;72.94;100794.31;5053912;28;20047;-61
2023/05/19 02:55:40;;;;;;;5.53;2.53;;;;;;;18.41;73.10;100791.63;5054066;28;20131;-61
2023/05/19 02:58:08;;;;;;;3.55;2.00;;;;;;;18.41;72.88;100796.16;5053758;28;20386;-61
2023/05/19 03:00:36;;;;;;;4.05;2.00;;;;;;;18.41;73.13;100793.47;5053682;28;20048;-61
2023/05/19 03:03:05;;;;;;;4.65;2.22;;;;;;;18.40;72.94;100792.59;5053916;28;20048;-61
2023/05/19 03:05:33;;;;;;;3.80;1.85;;;;;;;18.39;73.05;100790.91;5053686;28;20577;-60
2023/05/19 03:08:03;;;;;;;4.20;1.90;;;;;;;18.39;72.91;100801.69;5053730;28;20060;-60
2023/05/19 03:10:31;;;;;;;3.90;1.98;;;;;;;18.38;73.13;100793.72;5053503;28;20053;-61
2023/05/19 03:13:02;;;;;;;4.65;2.03;;;;;;;18.38;73.16;100793.72;5052405;28;20174;-61
2023/05/19 03:15:33;;;;;;;4.20;2.00;;;;;;;18.38;72.91;100801.84;5053652;28;20053;-60
2023/05/19 03:18:01;;;;;;;3.30;1.77;;;;;;;18.37;72.71;100800.97;5053637;28;20477;-60
2023/05/19 03:20:30;;;;;;;3.50;1.85;;;;;;;18.37;72.82;100806.38;5053447;28;20494;-62
2023/05/19 03:23:00;;;;;;;3.38;1.95;;;;;;;18.38;73.12;100809.94;5053483;28;20111;-62
2023/05/19 03:25:30;;;;;;;4.50;2.10;;;;;;;18.36;72.79;100807.38;5053303;28;20055;-63
2023/05/19 03:28:00;;;;;;;4.20;2.20;;;;;;;18.37;72.71;100813.63;5053410;28;20060;-62
2023/05/19 03:30:28;;;;;;;3.13;1.85;;;;;;;18.36;72.88;100811.91;5053511;28;20045;-62
2023/05/19 03:32:56;;;;;;;33.10;11.57;;;;;;;18.35;73.02;100810.22;5053374;28;20049;-62
2023/05/19 03:35:33;;;;;;;16.13;7.55;;;;;;;18.36;73.00;100811.91;5053139;28;20143;-62
2023/05/19 03:38:02;;;;;;;7.15;3.70;;;;;;;18.35;72.64;100810.22;5052850;28;20391;-62
2023/05/19 03:40:31;;;;;;;7.80;3.20;;;;;;;18.34;72.75;100803.94;5053122;28;20049;-62
2023/05/19 03:43:00;;;;;;;5.13;3.00;;;;;;;18.35;73.07;100796.69;5053212;28;20076;-62
2023/05/19 03:45:28;;;;;;;5.47;2.72;;;;;;;18.34;72.94;100809.34;5053192;28;20136;-62
2023/05/19 03:48:01;;;;;;;5.45;2.42;;;;;;;18.34;72.94;100803.09;5052959;28;20056;-62
2023/05/19 03:50:30;;;;;;;4.32;2.20;;;;;;;18.34;72.82;100803.09;5052329;28;20555;-62
2023/05/19 03:52:58;;;;;;;5.03;2.80;;;;;;;18.34;72.66;100808.50;5053087;28;20055;-63
2023/05/19 03:55:31;;;;;;;3.55;2.17;;;;;;;18.34;72.74;100808.50;5052987;28;20455;-61
2023/05/19 03:57:59;;;;;;;4.00;2.40;;;;;;;18.33;73.17;100809.44;5052759;28;20045;-60
2023/05/19 04:00:27;;;;;;;4.65;2.40;;;;;;;18.34;72.73;100813.91;5052701;28;20131;-62
2023/05/19 04:02:58;;;;;;;4.18;2.65;;;;;;;18.33;72.94;100812.16;5052778;28;20045;-62
2023/05/19 04:05:27;;;;;;;3.75;2.10;;;;;;;18.33;73.03;100812.16;5052577;28;20099;-63
2023/05/19 04:07:55;;;;;;;4.75;2.40;;;;;;;18.33;72.76;100812.16;5052630;28;20163;-62
2023/05/19 04:10:23;;;;;;;5.13;2.50;;;;;;;18.33;72.59;100809.44;5052423;28;20073;-63
2023/05/19 04:12:53;;;;;;;5.07;2.58;;;;;;;18.32;72.80;100811.28;5052296;28;20111;-62
2023/05/19 04:15:21;;;;;;;4.10;2.10;;;;;;;18.33;72.66;100814.84;5051069;28;20084;-62
2023/05/19 04:17:49;;;;;;;4.88;2.60;;;;;;;18.33;72.54;100812.16;5084366;28;20045;-60
2023/05/19 04:20:18;;;;;;;3.55;2.15;;;;;;;18.33;72.66;100822.94;5052403;28;20387;-62
2023/05/19 04:22:46;;;;;;;4.85;2.22;;;;;;;18.32;72.87;100824.81;5052439;28;20444;-62
2023/05/19 04:25:14;;;;;;;3.97;2.10;;;;;;;18.33;72.57;100822.94;5052080;28;20482;-63
2023/05/19 04:27:43;;;;;;;3.97;2.47;;;;;;;18.33;72.72;100831.06;5052371;28;20088;-61
2023/05/19 04:30:16;;;;;;;4.43;2.40;;;;;;;18.33;72.75;100825.66;5052005;28;20111;-61
2023/05/19 04:32:45;;;;;;;5.20;2.58;;;;;;;18.33;72.75;100833.75;5052128;28;20122;-62
2023/05/19 04:35:16;;;;;;;4.22;2.22;;;;;;;18.32;72.91;100830.19;5052173;28;20095;-61
2023/05/19 04:37:53;;;;;;;4.00;2.22;;;;;;;18.33;72.62;100837.31;5061646;28;20052;-61
2023/05/19 04:40:22;;;;;;;4.45;2.40;;;;;;;18.33;72.67;100836.47;5071924;28;20044;-61
2023/05/19 04:42:56;;;;;;;3.97;2.28;;;;;;;18.34;72.69;100847.16;5071581;28;20041;-61
2023/05/19 04:45:25;;;;;;;3.95;2.25;;;;;;;18.33;72.76;100845.41;5071849;28;20044;-61
2023/05/19 04:47:56;;;;;;;5.47;2.40;;;;;;;18.34;72.87;100846.31;5071917;28;20075;-61
2023/05/19 04:50:25;;;;;;;4.63;2.50;;;;;;;18.34;72.57;100847.16;5071967;28;20117;-61
2023/05/19 04:52:53;;;;;;;4.25;2.50;;;;;;;18.35;72.84;100850.72;5071767;28;20058;-61
2023/05/19 04:55:21;;;;;;;4.55;2.40;;;;;;;18.35;72.57;100848.00;5071474;28;20044;-61
2023/05/19 04:57:51;;;;;;;5.03;2.65;;;;;;;18.35;72.77;100848.00;5071433;28;20128;-61
2023/05/19 05:00:20;;;;;;;4.97;2.50;;;;;;;18.36;72.74;100849.72;5071560;28;20051;-61
2023/05/19 05:02:50;;;;;;;4.88;2.10;;;;;;;18.35;72.84;100848.88;5071466;28;20525;-61
2023/05/19 05:05:19;;;;;;;5.05;2.60;;;;;;;18.37;72.66;100846.03;5071233;28;20056;-61
2023/05/19 05:07:48;;;;;;;3.88;2.50;;;;;;;18.37;72.75;100856.84;5071124;28;20142;-62
2023/05/19 05:10:16;;;;;;;5.65;2.63;;;;;;;18.37;72.50;100855.00;5071159;28;20051;-61
2023/05/19 05:12:45;;;;;;;3.63;2.00;;;;;;;18.39;72.75;100860.25;5071308;28;20056;-61
2023/05/19 05:15:14;;;;;;;4.20;2.25;;;;;;;18.39;72.95;100854.88;5071478;28;20589;-60
2023/05/19 05:17:44;;;;;;;4.65;2.13;;;;;;;18.39;72.79;100854.88;5071060;28;20044;-63
2023/05/19 05:20:17;;;;;;;3.63;2.05;;;;;;;18.40;72.85;100859.28;5071149;28;20179;-62
2023/05/19 05:22:47;;;;;;;3.90;2.00;;;;;;;18.40;72.71;100867.38;5070822;28;20051;-62
2023/05/19 05:25:17;;;;;;;4.25;2.17;;;;;;;18.41;72.85;100869.09;5071407;28;20080;-62
2023/05/19 05:27:45;;;;;;;3.65;2.08;;;;;;;18.41;72.79;100871.78;5069871;28;20056;-62
2023/05/19 05:30:22;;;;;;;4.18;2.33;;;;;;;18.41;72.93;100867.25;5071255;28;20059;-63
2023/05/19 05:32:50;;;;;;;4.15;1.98;;;;;;;18.43;73.14;100869.81;5070401;28;20173;-61
2023/05/19 05:35:23;;;;;;;4.45;2.20;;;;;;;18.43;73.40;100856.31;5069201;28;20051;-62
2023/05/19 05:37:51;;;;;;;3.83;1.95;;;;;;;18.44;73.64;100856.22;5068964;28;20068;-61
2023/05/19 05:40:22;;;;;;;4.55;2.25;;;;;;;18.45;74.12;100867.88;5069802;28;20059;-61
2023/05/19 05:42:50;;;;;;;4.40;2.20;;;;;;;18.45;73.97;100863.31;5070650;28;20113;-61
2023/05/19 05:45:19;;;;;;;4.55;2.10;;;;;;;18.46;73.75;100861.47;5070519;28;20485;-61
2023/05/19 05:47:48;;;;;;;6.07;2.63;;;;;;;18.48;74.14;100860.34;5070511;28;20044;-61
2023/05/19 05:50:18;;;;;;;5.05;2.50;;;;;;;18.48;74.54;100854.94;5069910;28;20057;-61
2023/05/19 05:52:48;;;;;;;4.07;2.00;;;;;;;18.50;74.35;100862.91;5071140;28;20181;-61
2023/05/19 05:55:19;;;;;;;4.45;2.33;;;;;;;18.49;74.37;100864.75;5071043;28;20040;-63
2023/05/19 05:57:47;;;;;;;3.88;2.10;;;;;;;18.51;74.82;100865.50;5071003;28;20048;-59
2023/05/19 06:00:16;;;;;;;4.65;2.20;;;;;;;18.52;74.88;100866.34;5070683;28;20052;-61
2023/05/19 06:02:46;;;;;;;3.40;2.10;;;;;;;18.52;74.56;100867.19;5071066;28;20044;-61
2023/05/19 06:05:17;;;;;;;4.65;2.22;;;;;;;18.54;75.11;100865.25;5070777;28;20166;-60
2023/05/19 06:07:50;;;;;;;4.90;2.33;;;;;;;18.54;74.48;100867.97;5070757;28;20084;-60
2023/05/19 06:10:18;;;;;;;3.95;2.22;;;;;;;18.55;74.74;100866.09;5070463;28;20049;-60
2023/05/19 06:12:49;;;;;;;3.88;2.03;;;;;;;18.56;74.42;100873.22;5070362;28;20048;-61
2023/05/19 06:15:17;;;;;;;3.67;2.25;;;;;;;18.57;74.73;100874.94;5070918;28;20044;-60
2023/05/19 06:17:45;;;;;;;4.88;2.10;;;;;;;18.58;74.99;100876.66;5070925;28;20052;-60
2023/05/19 06:20:14;;;;;;;3.67;2.10;;;;;;;18.59;75.33;100873.81;5070704;28;20045;-60
2023/05/19 06:22:42;;;;;;;3.95;2.33;;;;;;;18.60;75.01;100874.66;5070639;28;20409;-61
2023/05/19 06:25:12;;;;;;;5.68;2.15;;;;;;;18.60;74.82;100880.94;5070567;28;20405;-61
2023/05/19 06:27:40;;;;;;;4.95;2.45;;;;;;;18.62;74.97;100882.63;5070333;28;20093;-60
2023/05/19 06:30:12;;;;;;;4.15;2.30;;;;;;;18.62;74.64;100888.91;5070522;28;20136;-61
2023/05/19 06:32:40;;;;;;;5.15;2.40;;;;;;;18.63;74.75;100879.84;5070337;28;20439;-60
2023/05/19 06:35:09;;;;;;;5.30;2.22;;;;;;;18.64;74.73;100897.75;5070643;28;20056;-62
2023/05/19 06:37:37;;;;;;;5.68;2.65;;;;;;;18.66;74.72;100894.97;5070198;28;20465;-61
2023/05/19 06:40:07;;;;;;;4.25;2.20;;;;;;;18.65;74.93;100899.50;5070141;28;20684;-60
2023/05/19 06:42:37;;;;;;;5.82;2.35;;;;;;;18.67;74.62;100900.22;5070647;28;20123;-62
2023/05/19 06:45:07;;;;;;;4.25;2.20;;;;;;;18.67;74.69;100908.34;5070544;28;20260;-62
2023/05/19 06:47:35;;;;;;;6.45;2.33;;;;;;;18.69;74.64;100910.91;5070908;28;20398;-61
2023/05/19 06:50:04;;;;;;;6.15;2.42;;;;;;;18.69;74.79;100903.66;5073141;28;20422;-61
2023/05/19 06:52:32;;;;;;;4.35;1.95;;;;;;;18.70;74.80;100910.78;5073978;28;20137;-61
2023/05/19 06:55:01;;;;;;;5.30;2.38;;;;;;;18.71;74.64;100915.19;5074083;28;20045;-61
2023/05/19 06:57:29;;;;;;;4.43;2.38;;;;;;;18.72;74.60;100916.03;5072719;28;20060;-61
2023/05/19 06:59:58;;;;;;;5.57;2.60;;;;;;;18.72;74.50;100914.22;5073643;28;20140;-61
2023/05/19 07:02:27;;;;;;;4.05;2.22;;;;;;;18.73;74.93;100910.53;5073580;28;20048;-61
2023/05/19 07:04:56;;;;;;;5.28;2.30;;;;;;;18.75;74.60;100916.66;5073621;28;20193;-62
2023/05/19 07:07:25;;;;;;;4.15;2.30;;;;;;;18.77;75.04;100914.69;5073421;28;20207;-62
2023/05/19 07:09:53;;;;;;;4.95;2.30;;;;;;;18.78;75.04;100913.69;5073460;28;20414;-61
2023/05/19 07:12:21;;;;;;;4.18;2.30;;;;;;;18.79;75.07;100907.28;5073225;28;20140;-61
2023/05/19 07:14:49;;;;;;;4.47;2.25;;;;;;;18.80;74.94;100911.72;5073417;28;20053;-61
2023/05/19 07:17:21;;;;;;;4.72;2.60;;;;;;;18.81;74.96;100910.72;5073291;28;20052;-60
2023/05/19 07:19:57;;;;;;;5.90;2.20;;;;;;;18.83;74.99;100910.63;5073199;28;20478;-60
2023/05/19 07:22:26;;;;;;;6.25;2.78;;;;;;;18.84;75.05;100909.63;5073525;28;20427;-60
2023/05/19 07:24:55;;;;;;;6.68;2.47;;;;;;;18.85;74.74;100905.94;5073515;28;20413;-60
2023/05/19 07:27:24;;;;;;;5.63;2.60;;;;;;;18.86;74.75;100905.81;5073249;28;20132;-61
2023/05/19 07:29:52;;;;;;;4.18;2.10;;;;;;;18.87;75.08;100896.69;5072922;28;20437;-60
2023/05/19 07:32:21;;;;;;;5.93;2.50;;;;;;;18.88;74.80;100901.13;5073055;28;20082;-60
2023/05/19 07:34:50;;;;;;;5.10;2.28;;;;;;;18.90;75.02;100892.00;5073268;28;20091;-62
2023/05/19 07:37:18;;;;;;;4.07;1.98;;;;;;;18.91;75.24;100886.47;5073149;28;20148;-60
2023/05/19 07:39:46;;;;;;;4.57;2.30;;;;;;;18.92;75.03;100884.66;5073106;28;20044;-61
2023/05/19 07:42:14;;;;;;;6.63;2.63;;;;;;;18.93;74.99;100886.38;5073112;28;20048;-60
2023/05/19 07:44:43;;;;;;;3.47;2.10;;;;;;;18.95;75.04;100887.09;5072756;28;20426;-60
2023/05/19 07:47:11;;;;;;;4.57;2.38;;;;;;;18.97;75.31;100887.81;5072730;28;20405;-60
2023/05/19 07:49:40;;;;;;;5.10;2.50;;;;;;;18.97;75.03;100883.25;5072666;28;20052;-60
2023/05/19 07:52:09;;;;;;;4.93;2.20;;;;;;;18.98;75.43;100881.41;5072901;28;20091;-60
2023/05/19 07:54:37;;;;;;;4.38;2.25;;;;;;;19.00;75.29;100882.13;5072623;28;20128;-60
2023/05/19 07:57:06;;;;;;;4.47;2.40;;;;;;;19.01;75.10;100884.72;5072573;28;20059;-60
2023/05/19 07:59:34;;;;;;;4.45;2.38;;;;;;;19.03;75.03;100888.16;5072096;28;20053;-60
2023/05/19 08:02:02;;;;;;;4.20;2.67;;;;;;;19.04;75.42;100883.59;5072294;28;20486;-60
2023/05/19 08:04:30;;;;;;;4.88;2.80;;;;;;;19.05;75.02;100886.16;5072568;28;20052;-60
2023/05/19 08:07:00;;;;;;;5.38;2.50;;;;;;;19.06;75.20;100878.91;5072226;28;20409;-60
2023/05/19 08:09:28;;;;;;;4.25;2.85;;;;;;;19.07;75.22;100876.06;5072073;28;20045;-61
2023/05/19 08:11:56;;;;;;;4.78;2.35;;;;;;;19.09;74.96;100878.63;5070767;28;20131;-60
2023/05/19 08:14:25;;;;;;;3.72;2.13;;;;;;;19.10;75.14;100880.34;5072154;28;20036;-63
2023/05/19 08:16:53;;;;;;;4.32;2.60;;;;;;;19.11;75.03;100871.28;5071981;28;20513;-60
2023/05/19 08:19:22;;;;;;;6.18;2.42;;;;;;;19.12;75.24;100864.88;5070696;28;20048;-63
2023/05/19 08:21:50;;;;;;;5.60;2.65;;;;;;;19.14;75.21;100876.41;5072155;28;20036;-60
2023/05/19 08:24:20;;;;;;;4.28;2.20;;;;;;;19.16;74.95;100869.03;5071951;28;20037;-60
2023/05/19 08:26:48;;;;;;;4.55;2.33;;;;;;;19.16;74.87;100871.72;5071965;28;20084;-60
2023/05/19 08:29:16;;;;;;;5.90;2.63;;;;;;;19.17;75.03;100879.69;5071912;28;20044;-61
2023/05/19 08:31:44;;;;;;;4.70;2.10;;;;;;;19.18;75.01;100877.84;5071774;28;20083;-61
2023/05/19 08:34:12;;;;;;;3.92;2.30;;;;;;;19.20;74.77;100875.00;5071961;28;20055;-60
2023/05/19 08:36:40;;;;;;;5.72;2.40;;;;;;;19.21;74.78;100874.06;5071947;28;20045;-60
2023/05/19 08:39:08;;;;;;;4.75;2.53;;;;;;;19.23;74.80;100869.34;5071602;28;20468;-60
2023/05/19 08:41:38;;;;;;;4.50;2.03;;;;;;;19.24;74.64;100869.22;5071568;28;20555;-61
2023/05/19 08:44:06;;;;;;;3.88;2.05;;;;;;;19.25;75.03;100862.81;5071737;28;20059;-60
2023/05/19 08:46:35;;;;;;;4.68;2.10;;;;;;;19.27;74.91;100865.38;5071952;28;20049;-61
2023/05/19 08:49:09;;;;;;;4.40;2.50;;;;;;;19.28;75.05;100862.53;5071598;28;20048;-60
2023/05/19 08:51:44;;;;;;;3.67;2.30;;;;;;;19.30;74.74;100865.09;5071480;28;20324;-60
2023/05/19 08:54:15;;;;;;;3.58;2.10;;;;;;;19.30;75.13;100866.00;5071579;28;20045;-61
2023/05/19 08:56:45;;;;;;;3.70;2.05;;;;;;;19.31;74.95;100870.41;5071380;28;20044;-61
2023/05/19 08:59:14;;;;;;;4.25;2.45;;;;;;;19.33;75.10;100868.41;5071188;28;20136;-61
2023/05/19 09:01:45;;;;;;;5.13;2.40;;;;;;;19.34;75.29;100869.28;5071192;28;20049;-61
2023/05/19 09:04:13;;;;;;;3.67;2.30;;;;;;;19.35;74.87;100866.44;5071184;28;20052;-61
2023/05/19 09:06:43;;;;;;;4.38;2.10;;;;;;;19.36;74.88;100870.84;5071572;28;20044;-61
2023/05/19 09:09:12;;;;;;;5.53;2.42;;;;;;;19.38;74.86;100865.31;5071497;28;20063;-61
2023/05/19 09:11:40;;;;;;;4.05;2.15;;;;;;;19.39;74.79;100861.59;5070286;28;20061;-61
2023/05/19 09:14:10;;;;;;;4.07;2.13;;;;;;;19.40;74.94;100869.59;5071243;28;20102;-60
2023/05/19 09:16:39;;;;;;;4.68;2.20;;;;;;;19.41;74.70;100865.91;5071286;28;20055;-60
2023/05/19 09:19:14;;;;;;;3.15;2.10;;;;;;;19.42;74.79;100867.63;5071719;28;20052;-60
2023/05/19 09:21:44;;;;;;;4.20;2.25;;;;;;;19.43;74.69;100865.78;5071372;28;20457;-60
2023/05/19 09:24:12;;;;;;;3.97;2.45;;;;;;;19.44;74.89;100864.78;5071402;28;20056;-60
2023/05/19 09:26:42;;;;;;;3.88;2.10;;;;;;;19.45;74.88;100872.75;5071331;28;20071;-61
2023/05/19 09:29:13;;;;;;;4.32;1.92;;;;;;;19.47;75.19;100863.63;5071154;28;20040;-61
2023/05/19 09:31:48;;;;;;;5.63;2.15;;;;;;;19.48;74.82;100866.22;5071056;28;20063;-61
2023/05/19 09:34:17;;;;;;;3.95;1.90;;;;;;;19.50;74.88;100863.41;5071344;28;20152;-61
2023/05/19 09:36:48;;;;;;;3.67;2.20;;;;;;;19.51;74.99;100859.69;5071036;28;20512;-61
2023/05/19 09:39:17;;;;;;;3.45;2.08;;;;;;;19.52;74.75;100861.41;5071136;28;20051;-61
2023/05/19 09:41:46;;;;;;;3.92;2.33;;;;;;;19.53;74.93;100863.97;5071113;28;20159;-61
2023/05/19 09:44:22;;;;;;;3.83;2.40;;;;;;;19.54;75.00;100865.69;5071247;28;20131;-61
2023/05/19 09:46:51;;;;;;;3.90;2.20;;;;;;;19.56;74.90;100863.72;5070936;28;20091;-61
2023/05/19 09:49:21;;;;;;;3.50;2.13;;;;;;;19.57;74.80;100865.44;5071096;28;20491;-61
2023/05/19 09:51:51;;;;;;;3.47;1.95;;;;;;;19.59;74.73;100862.59;5071044;28;20052;-61
2023/05/19 09:54:21;;;;;;;4.13;2.30;;;;;;;19.60;74.62;100854.34;5070780;28;20147;-61
2023/05/19 09:56:58;;;;;;;3.53;2.20;;;;;;;19.62;74.62;100857.78;5070886;28;20489;-61
2023/05/19 09:59:29;;;;;;;3.67;2.10;;;;;;;19.63;74.70;100848.66;5070817;28;20059;-61
2023/05/19 10:02:02;;;;;;;4.63;2.40;;;;;;;19.65;74.60;100846.66;5070923;28;20383;-61
2023/05/19 10:04:30;;;;;;;3.22;2.08;;;;;;;19.67;74.76;100849.22;5070607;28;20569;-61
2023/05/19 10:06:59;;;;;;;4.22;2.10;;;;;;;19.68;75.00;100846.38;5070734;28;20049;-61
2023/05/19 10:09:30;;;;;;;3.83;1.90;;;;;;;19.70;74.82;100838.16;5070593;28;20509;-61
2023/05/19 10:12:00;;;;;;;3.80;2.00;;;;;;;19.70;74.89;100836.31;5070761;28;20060;-61
2023/05/19 10:14:30;;;;;;;3.88;2.30;;;;;;;19.73;74.80;100832.47;5070677;28;20056;-61
2023/05/19 10:16:59;;;;;;;3.30;2.00;;;;;;;19.74;74.76;100826.06;5071068;28;20140;-61
2023/05/19 10:19:28;;;;;;;3.70;2.28;;;;;;;19.76;74.62;100826.75;5070223;28;20484;-62
2023/05/19 10:22:00;;;;;;;3.50;2.08;;;;;;;19.77;74.38;100828.47;5070497;28;20490;-61
2023/05/19 10:24:28;;;;;;;2.97;2.00;;;;;;;19.78;74.79;100816.66;5074679;28;20048;-61
2023/05/19 10:27:03;;;;;;;3.00;2.10;;;;;;;19.81;74.52;100816.41;5073494;28;20397;-61
2023/05/19 10:29:37;;;;;;;3.42;2.15;;;;;;;19.83;74.88;100817.09;5074312;28;20139;-60
2023/05/19 10:32:11;;;;;;;4.18;2.10;;;;;;;19.86;74.84;100821.38;5073641;28;20075;-61
2023/05/19 10:35:23;;;;;;;3.88;2.17;;;;;;;19.88;74.40;100817.56;5074269;28;20052;-61
2023/05/19 10:37:58;;;;;;;2.90;2.08;;;;;;;19.90;74.58;100823.69;5073781;28;20090;-61
2023/05/19 10:40:29;;;;;;;3.28;2.20;;;;;;;19.92;74.27;100820.84;5074180;28;20060;-62
2023/05/19 10:43:07;;;;;;;3.50;2.00;;;;;;;19.94;74.51;100808.88;5074043;28;20133;-62
2023/05/19 10:45:45;;;;;;;2.67;1.63;;;;;;;19.96;74.15;100817.69;5074263;28;20040;-61
2023/05/19 10:48:15;;;;;;;3.70;2.28;;;;;;;19.97;74.38;100814.00;5074170;28;20110;-61
2023/05/19 10:50:45;;;;;;;4.00;2.40;;;;;;;19.99;74.17;100814.75;5073946;28;20447;-61
2023/05/19 10:53:18;;;;;;;3.58;2.08;;;;;;;20.00;74.02;100813.75;5073959;28;20055;-60
2023/05/19 10:55:47;;;;;;;;;;;;;;;20.01;73.96;100815.44;5074275;28;20489;-61
2023/05/19 10:58:16;;;;;;;3.80;2.15;;;;;;;20.02;73.78;100800.06;5073735;28;20014;-61
2023/05/19 11:00:45;;;;;;;4.10;2.05;;;;;;;20.05;74.11;100804.31;5074100;28;20044;-61
2023/05/19 11:03:14;;;;;;;3.50;1.98;;;;;;;20.07;74.14;100803.19;5073586;28;20093;-61
2023/05/19 11:05:44;;;;;;;3.55;2.10;;;;;;;20.11;74.07;100798.38;5074066;28;20045;-61
2023/05/19 11:08:13;;;;;;;3.10;2.10;;;;;;;20.14;74.20;100787.25;5073397;28;20048;-61
2023/05/19 11:10:44;;;;;;;3.22;1.95;;;;;;;20.17;73.94;100792.38;5073379;28;20063;-63
2023/05/19 11:13:21;;;;;;;4.68;2.20;;;;;;;20.18;73.95;100783.28;5072727;28;20394;-63
2023/05/19 11:15:52;;;;;;;3.95;2.28;;;;;;;20.19;74.21;100785.84;5073362;28;20068;-63
2023/05/19 11:18:20;;;;;;;3.92;2.30;;;;;;;20.22;73.93;100787.41;5073390;28;20508;-63
2023/05/19 11:20:57;;;;;;;3.40;1.98;;;;;;;20.23;73.84;100791.81;5073308;28;20423;-62
2023/05/19 11:23:26;;;;;;;4.97;2.20;;;;;;;20.25;73.67;100789.81;5073478;28;20174;-63
2023/05/19 11:25:54;;;;;;;3.47;2.10;;;;;;;20.28;73.78;100784.13;5073458;28;20044;-63
2023/05/19 11:28:24;;;;;;;4.32;2.10;;;;;;;20.30;73.56;100782.13;5073040;28;20109;-62
2023/05/19 11:30:57;;;;;;;3.67;2.20;;;;;;;20.33;73.40;100781.84;5073480;28;20400;-62
2023/05/19 11:33:26;;;;;;;3.33;2.40;;;;;;;20.36;73.22;100784.25;5073268;28;20048;-62
2023/05/19 11:35:57;;;;;;;3.47;2.00;;;;;;;20.39;73.19;100781.28;5072269;28;20545;-63
2023/05/19 11:38:27;;;;;;;3.78;2.10;;;;;;;20.42;73.35;100786.41;5073137;28;20052;-62